Time;durP1;ratioP1;P1;durP2;ratioP2;P2;SDS_P1;SDS_P2;PMS_P1;PMS_P2;Temp;Humidity;BMP_temperature;BMP_pressure;BME280_temperature;BME280_humidity;BME280_pressure;Samples;Min_cycle;Max_cycle;Signal;HPM_P1;HPM_P2
2022/11/04 00:01:19;;;;;;;4.80;2.22;;;;;;;;;;1773923;79;21062;-51
2022/11/04 00:03:46;;;;;;;5.70;2.27;;;;;;;;;;1775518;79;21121;-51
2022/11/04 00:06:12;;;;;;;3.20;1.67;;;;;;;;;;1768930;79;21915;-51
2022/11/04 00:08:38;;;;;;;2.87;1.90;;;;;;;;;;1772287;79;21879;-49
2022/11/04 00:13:51;;;;;;;8.43;2.20;;;;;;;;;;1773210;79;21068;-51
2022/11/04 00:19:03;;;;;;;6.58;2.20;;;;;;;;;;1773817;79;21884;-49
2022/11/04 00:29:43;;;;;;;11.35;2.80;;;;;;;;;;1771176;79;21046;-51
2022/11/04 00:34:55;;;;;;;5.17;2.27;;;;;;;;;;1771604;80;21505;-50
2022/11/04 00:37:22;;;;;;;3.12;1.65;;;;;;;;;;1765975;80;21023;-50
2022/11/04 00:39:48;;;;;;;4.03;1.70;;;;;;;;;;1776053;79;20980;-51
2022/11/04 00:42:14;;;;;;;3.77;1.65;;;;;;;;;;1772796;79;22007;-50
2022/11/04 00:44:40;;;;;;;12.15;2.58;;;;;;;;;;1776146;79;21792;-50
2022/11/04 00:47:07;;;;;;;6.03;2.22;;;;;;;;;;1773426;79;21043;-50
2022/11/04 00:49:33;;;;;;;2.60;1.65;;;;;;;;;;1770761;79;21106;-50
2022/11/04 00:51:59;;;;;;;5.28;1.67;;;;;;;;;;1770740;79;21045;-51
2022/11/04 00:54:25;;;;;;;5.72;2.05;;;;;;;;;;1777621;79;21069;-49
2022/11/04 00:56:52;;;;;;;9.35;2.05;;;;;;;;;;1767400;79;22560;-50
2022/11/04 00:59:19;;;;;;;2.52;1.60;;;;;;;;;;1770371;79;21098;-50
2022/11/04 01:01:46;;;;;;;2.90;1.70;;;;;;;;;;1774532;79;21039;-51
2022/11/04 01:04:12;;;;;;;3.70;1.52;;;;;;;;;;1769558;79;21312;-50
2022/11/04 01:06:39;;;;;;;3.92;1.95;;;;;;;;;;1774262;79;21352;-50
2022/11/04 01:09:07;;;;;;;2.83;1.27;;;;;;;;;;1774219;79;21808;-50
2022/11/04 01:11:33;;;;;;;4.53;1.50;;;;;;;;;;1771377;79;21014;-50
2022/11/04 01:14:00;;;;;;;4.42;1.70;;;;;;;;;;1761861;79;21118;-50
2022/11/04 01:16:28;;;;;;;3.00;1.57;;;;;;;;;;1768701;79;21047;-51
2022/11/04 01:18:54;;;;;;;3.83;1.45;;;;;;;;;;1773750;79;21085;-49
2022/11/04 01:21:20;;;;;;;2.50;1.50;;;;;;;;;;1775304;79;21979;-50
2022/11/04 01:23:47;;;;;;;5.50;2.27;;;;;;;;;;1772440;79;21042;-51
2022/11/04 01:26:17;;;;;;;4.72;1.65;;;;;;;;;;1767755;79;21079;-50
2022/11/04 01:28:44;;;;;;;6.40;1.95;;;;;;;;;;1773294;79;22387;-49
2022/11/04 01:31:17;;;;;;;4.95;2.58;;;;;;;;;;1768097;80;21031;-50
2022/11/04 01:33:43;;;;;;;5.30;3.00;;;;;;;;;;1769967;79;21869;-50
2022/11/04 01:36:10;;;;;;;9.20;3.40;;;;;;;;;;1766685;79;21415;-50
2022/11/04 01:38:36;;;;;;;4.30;2.92;;;;;;;;;;1775373;79;21055;-50
2022/11/04 01:41:04;;;;;;;8.33;3.30;;;;;;;;;;1765444;79;21101;-50
2022/11/04 01:43:46;;;;;;;3.60;2.55;;;;;;;;;;1768074;79;21075;-50
2022/11/04 01:46:16;;;;;;;3.92;1.82;;;;;;;;;;1764548;79;21361;-50
2022/11/04 01:48:42;;;;;;;7.87;2.50;;;;;;;;;;1763995;79;21481;-51
2022/11/04 01:51:08;;;;;;;3.67;2.15;;;;;;;;;;1766640;79;21911;-51
2022/11/04 01:53:37;;;;;;;5.45;1.35;;;;;;;;;;1758603;79;21044;-50
2022/11/04 01:56:10;;;;;;;2.65;1.35;;;;;;;;;;1768197;79;21086;-51
2022/11/04 01:58:35;;;;;;;2.85;1.25;;;;;;;;;;1767357;79;22031;-51
2022/11/04 02:01:01;;;;;;;4.12;1.35;;;;;;;;;;1764395;79;21093;-50
2022/11/04 02:03:37;;;;;;;3.00;1.25;;;;;;;;;;1763782;80;21062;-50
2022/11/04 02:06:03;;;;;;;2.00;1.20;;;;;;;;;;1765367;79;21090;-51
2022/11/04 02:08:30;;;;;;;3.30;1.17;;;;;;;;;;1766051;79;21604;-50
2022/11/04 02:10:59;;;;;;;3.25;1.55;;;;;;;;;;1764525;79;21019;-50
2022/11/04 02:13:26;;;;;;;2.85;1.32;;;;;;;;;;1763774;79;21580;-51
2022/11/04 02:16:09;;;;;;;2.85;1.20;;;;;;;;;;1762528;79;21031;-50
2022/11/04 02:19:01;;;;;;;3.62;1.42;;;;;;;;;;1763605;79;21031;-51
2022/11/04 02:21:43;;;;;;;3.83;1.27;;;;;;;;;;1765861;79;21035;-50
2022/11/04 02:24:42;;;;;;;3.80;1.07;;;;;;;;;;1762914;79;21831;-50
2022/11/04 02:27:27;;;;;;;2.05;1.22;;;;;;;;;;1758576;79;21090;-50
2022/11/04 02:30:03;;;;;;;2.85;1.35;;;;;;;;;;1756234;79;21523;-50
2022/11/04 02:32:39;;;;;;;4.05;1.50;;;;;;;;;;1759940;79;21556;-50
2022/11/04 02:35:26;;;;;;;2.87;1.25;;;;;;;;;;1763214;79;21526;-49
2022/11/04 02:38:00;;;;;;;2.25;1.32;;;;;;;;;;1756903;79;22378;-49
2022/11/04 02:40:46;;;;;;;3.27;1.07;;;;;;;;;;1694017;79;21483;-50
2022/11/04 02:43:21;;;;;;;2.90;1.37;;;;;;;;;;1767406;79;21532;-50
2022/11/04 02:45:49;;;;;;;2.37;1.22;;;;;;;;;;1761704;79;21041;-50
2022/11/04 02:48:34;;;;;;;2.35;1.00;;;;;;;;;;1741331;80;21044;-50
2022/11/04 02:51:10;;;;;;;4.70;1.80;;;;;;;;;;1760930;79;22751;-50
2022/11/04 02:53:46;;;;;;;1.98;0.90;;;;;;;;;;1760613;79;21529;-50
2022/11/04 02:56:12;;;;;;;3.58;1.20;;;;;;;;;;1764385;79;21035;-51
2022/11/04 02:58:56;;;;;;;4.00;1.10;;;;;;;;;;1765980;79;21043;-50
2022/11/04 03:01:22;;;;;;;4.28;0.90;;;;;;;;;;1735052;79;21032;-50
2022/11/04 03:03:53;;;;;;;3.02;1.05;;;;;;;;;;1763384;79;21812;-50
2022/11/04 03:06:21;;;;;;;2.47;1.32;;;;;;;;;;1767206;79;21577;-50
2022/11/04 03:08:50;;;;;;;4.37;1.00;;;;;;;;;;1764632;79;21595;-50
2022/11/04 03:11:17;;;;;;;3.22;1.10;;;;;;;;;;1761031;79;21042;-50
2022/11/04 03:13:59;;;;;;;3.92;1.32;;;;;;;;;;1760494;79;21043;-50
2022/11/04 03:16:31;;;;;;;5.10;1.20;;;;;;;;;;1769818;79;21232;-50
2022/11/04 03:19:14;;;;;;;2.45;1.17;;;;;;;;;;1763032;79;21051;-50
2022/11/04 03:21:50;;;;;;;2.62;1.30;;;;;;;;;;1725410;79;21536;-50
2022/11/04 03:24:16;;;;;;;2.98;1.20;;;;;;;;;;1766839;79;21009;-50
2022/11/04 03:26:48;;;;;;;2.55;1.82;;;;;;;;;;1765305;79;20995;-50
2022/11/04 03:29:35;;;;;;;2.30;1.20;;;;;;;;;;1765956;79;21775;-50
2022/11/04 03:32:09;;;;;;;3.05;1.32;;;;;;;;;;1765738;79;20972;-50
2022/11/04 03:34:36;;;;;;;3.02;1.00;;;;;;;;;;1768092;79;21012;-50
2022/11/04 03:37:02;;;;;;;9.40;1.70;;;;;;;;;;1770157;79;21023;-50
2022/11/04 03:39:30;;;;;;;3.52;1.05;;;;;;;;;;1769629;79;21404;-50
2022/11/04 03:41:57;;;;;;;5.97;0.90;;;;;;;;;;1762880;79;22495;-50
2022/11/04 03:44:23;;;;;;;2.02;1.00;;;;;;;;;;1763890;79;21519;-50
2022/11/04 03:46:53;;;;;;;3.52;1.40;;;;;;;;;;1759001;79;21543;-50
2022/11/04 03:49:22;;;;;;;2.90;1.12;;;;;;;;;;1757280;80;21392;-50
2022/11/04 03:51:50;;;;;;;4.92;1.00;;;;;;;;;;1765031;80;20976;-50
2022/11/04 03:54:16;;;;;;;3.22;1.02;;;;;;;;;;1760223;79;22443;-50
2022/11/04 03:57:21;;;;;;;3.98;1.00;;;;;;;;;;1762992;79;21469;-50
2022/11/04 04:00:02;;;;;;;2.02;1.00;;;;;;;;;;1764314;80;20971;-50
2022/11/04 04:02:57;;;;;;;7.42;1.15;;;;;;;;;;1765229;80;21049;-50
2022/11/04 04:05:30;;;;;;;3.02;1.10;;;;;;;;;;1760716;79;20983;-50
2022/11/04 04:08:22;;;;;;;4.08;1.22;;;;;;;;;;1762053;80;21695;-50
2022/11/04 04:10:52;;;;;;;5.20;1.35;;;;;;;;;;1761411;80;20987;-50
2022/11/04 04:13:37;;;;;;;5.35;1.20;;;;;;;;;;1758464;80;21441;-50
2022/11/04 04:16:16;;;;;;;2.27;1.25;;;;;;;;;;1758757;79;21058;-50
2022/11/04 04:18:51;;;;;;;3.95;1.22;;;;;;;;;;1758021;80;21172;-50
2022/11/04 04:21:20;;;;;;;3.52;1.40;;;;;;;;;;1763697;80;21817;-50
2022/11/04 04:29:17;;;;;;;3.77;1.20;;;;;;;;;;1762873;80;21073;-50
2022/11/04 04:31:51;;;;;;;5.58;1.20;;;;;;;;;;1761284;80;21053;-50
2022/11/04 04:34:22;;;;;;;3.10;1.17;;;;;;;;;;1763325;79;22430;-50
2022/11/04 04:37:01;;;;;;;3.47;1.42;;;;;;;;;;1764742;79;21011;-50
2022/11/04 04:45:09;;;;;;;;;;;;;;;;;;1772197;79;21043;-50
2022/11/04 04:47:44;;;;;;;10.30;1.60;;;;;;;;;;1771133;79;21844;-50
2022/11/04 04:50:13;;;;;;;2.62;1.30;;;;;;;;;;1769154;79;21020;-50
2022/11/04 04:52:42;;;;;;;5.35;1.25;;;;;;;;;;1770935;79;21552;-50
2022/11/04 04:55:09;;;;;;;3.87;1.47;;;;;;;;;;1772499;79;21372;-50
2022/11/04 04:57:36;;;;;;;3.30;1.37;;;;;;;;;;1766361;79;21098;-50
2022/11/04 05:00:04;;;;;;;4.42;1.55;;;;;;;;;;1772358;79;21832;-50
2022/11/04 05:02:30;;;;;;;4.97;1.20;;;;;;;;;;1772579;79;21540;-50
2022/11/04 05:04:58;;;;;;;3.15;1.60;;;;;;;;;;1767293;79;21063;-50
2022/11/04 05:07:24;;;;;;;4.85;1.42;;;;;;;;;;1768785;79;21075;-50
2022/11/04 05:09:51;;;;;;;5.15;1.40;;;;;;;;;;1769883;79;21031;-50
2022/11/04 05:12:17;;;;;;;5.67;1.50;;;;;;;;;;1769545;79;21845;-50
2022/11/04 05:14:43;;;;;;;3.55;1.05;;;;;;;;;;1773080;79;21075;-50
2022/11/04 05:17:09;;;;;;;6.67;1.10;;;;;;;;;;1766613;79;21066;-50
2022/11/04 05:19:36;;;;;;;2.52;1.30;;;;;;;;;;1770521;79;21102;-50
2022/11/04 05:22:02;;;;;;;3.95;1.05;;;;;;;;;;1768923;79;21383;-50
2022/11/04 05:24:29;;;;;;;3.55;1.07;;;;;;;;;;1771722;79;22779;-50
2022/11/04 05:26:56;;;;;;;3.67;1.10;;;;;;;;;;1767902;80;21260;-50
2022/11/04 05:29:22;;;;;;;5.53;1.30;;;;;;;;;;1770597;79;21140;-49
2022/11/04 05:31:49;;;;;;;4.70;1.62;;;;;;;;;;1770467;79;21012;-50
2022/11/04 05:34:16;;;;;;;4.45;1.80;;;;;;;;;;1767601;79;21983;-50
2022/11/04 05:36:43;;;;;;;6.05;1.60;;;;;;;;;;1767562;79;21770;-50
2022/11/04 05:39:12;;;;;;;5.22;1.77;;;;;;;;;;1766972;79;21031;-50
2022/11/04 05:41:38;;;;;;;5.10;2.42;;;;;;;;;;1767134;79;21563;-50
2022/11/04 05:44:05;;;;;;;4.22;2.70;;;;;;;;;;1741815;80;21087;-50
2022/11/04 05:46:32;;;;;;;5.30;2.17;;;;;;;;;;1742278;80;21051;-50
2022/11/04 05:48:58;;;;;;;4.62;2.10;;;;;;;;;;1740205;80;21840;-50
2022/11/04 05:51:26;;;;;;;3.75;1.40;;;;;;;;;;1734754;80;21043;-50
2022/11/04 05:53:53;;;;;;;6.12;2.02;;;;;;;;;;1747120;80;21062;-50
2022/11/04 05:56:20;;;;;;;3.22;1.50;;;;;;;;;;1745553;80;21106;-50
2022/11/04 05:58:46;;;;;;;2.02;1.55;;;;;;;;;;1739080;80;20975;-51
2022/11/04 06:01:24;;;;;;;5.62;1.42;;;;;;;;;;1745378;80;21841;-51
2022/11/04 06:03:51;;;;;;;4.15;1.60;;;;;;;;;;1742563;80;21536;-50
2022/11/04 06:06:18;;;;;;;2.70;2.08;;;;;;;;;;1743381;80;21578;-50
2022/11/04 06:08:44;;;;;;;3.65;1.50;;;;;;;;;;1740296;80;22599;-50
2022/11/04 06:11:11;;;;;;;5.90;1.40;;;;;;;;;;1740497;80;21004;-50
2022/11/04 06:13:37;;;;;;;2.00;1.47;;;;;;;;;;1739082;80;22005;-50
2022/11/04 06:16:05;;;;;;;3.50;1.67;;;;;;;;;;1741945;80;21091;-50
2022/11/04 06:18:32;;;;;;;3.42;1.40;;;;;;;;;;1747340;80;21574;-50
2022/11/04 06:21:12;;;;;;;2.72;1.50;;;;;;;;;;1743905;80;21075;-50
2022/11/04 06:23:43;;;;;;;1.82;1.42;;;;;;;;;;1743691;80;21861;-50
2022/11/04 06:26:10;;;;;;;2.15;1.12;;;;;;;;;;1765032;80;22436;-50
2022/11/04 06:28:37;;;;;;;4.58;1.75;;;;;;;;;;1738224;80;20968;-51
2022/11/04 06:31:05;;;;;;;6.22;1.10;;;;;;;;;;1742608;80;21109;-51
2022/11/04 06:36:04;;;;;;;2.87;1.40;;;;;;;;;;1788844;77;22624;-50
2022/11/04 06:38:32;;;;;;;4.28;1.90;;;;;;;;;;1772343;79;21112;-50
2022/11/04 06:40:58;;;;;;;2.60;2.08;;;;;;;;;;1743707;81;21778;-49
2022/11/04 06:43:24;;;;;;;3.90;2.37;;;;;;;;;;1744560;80;21109;-50
2022/11/04 06:45:59;;;;;;;2.87;1.60;;;;;;;;;;1728505;81;21092;-50
2022/11/04 06:48:26;;;;;;;4.20;1.80;;;;;;;;;;1727630;81;21575;-49
2022/11/04 06:50:52;;;;;;;3.55;1.65;;;;;;;;;;1734803;81;21075;-50
2022/11/04 06:53:18;;;;;;;2.90;1.40;;;;;;;;;;1741160;81;22664;-50
2022/11/04 06:55:45;;;;;;;2.37;1.75;;;;;;;;;;1679183;82;21586;-50
2022/11/04 06:58:11;;;;;;;6.22;2.22;;;;;;;;;;1706688;82;21072;-50
2022/11/04 07:00:37;;;;;;;3.55;1.30;;;;;;;;;;1683530;83;21033;-50
2022/11/04 07:03:03;;;;;;;5.45;1.40;;;;;;;;;;1681889;83;21924;-50
2022/11/04 07:05:32;;;;;;;2.62;1.60;;;;;;;;;;1708626;82;21840;-50
2022/11/04 07:07:59;;;;;;;3.55;1.20;;;;;;;;;;1683498;81;22421;-50
2022/11/04 07:10:25;;;;;;;2.77;1.67;;;;;;;;;;1707993;82;21084;-50
2022/11/04 07:12:53;;;;;;;2.67;1.90;;;;;;;;;;1712728;82;21120;-50
2022/11/04 07:15:20;;;;;;;6.65;2.42;;;;;;;;;;1712719;82;21038;-50
2022/11/04 07:17:46;;;;;;;6.80;2.30;;;;;;;;;;1706694;82;21791;-49
2022/11/04 07:20:12;;;;;;;6.03;2.15;;;;;;;;;;1707977;81;21046;-50
2022/11/04 07:22:40;;;;;;;2.52;2.33;;;;;;;;;;1709776;82;21029;-50
2022/11/04 07:25:08;;;;;;;3.87;2.20;;;;;;;;;;1712821;81;21061;-50
2022/11/04 07:27:35;;;;;;;2.05;1.67;;;;;;;;;;1708243;82;21084;-50
2022/11/04 07:30:01;;;;;;;2.45;1.47;;;;;;;;;;1706884;81;21942;-50
2022/11/04 07:32:28;;;;;;;3.85;1.60;;;;;;;;;;1707420;82;21623;-49
2022/11/04 07:34:54;;;;;;;3.85;1.70;;;;;;;;;;1703615;81;21175;-50
2022/11/04 07:37:20;;;;;;;4.15;1.82;;;;;;;;;;1727240;80;21057;-50
2022/11/04 07:39:46;;;;;;;3.27;2.55;;;;;;;;;;1732599;80;21340;-50
2022/11/04 07:42:13;;;;;;;5.47;2.20;;;;;;;;;;1732765;81;21839;-50
2022/11/04 07:44:39;;;;;;;4.20;2.35;;;;;;;;;;1727936;81;21080;-50
2022/11/04 07:47:05;;;;;;;1.80;1.60;;;;;;;;;;1728469;80;21471;-49
2022/11/04 07:49:32;;;;;;;2.87;2.02;;;;;;;;;;1726186;82;21503;-50
2022/11/04 07:51:58;;;;;;;1.90;1.67;;;;;;;;;;1726125;81;21094;-50
2022/11/04 07:54:24;;;;;;;4.87;1.82;;;;;;;;;;1727430;80;23198;-50
2022/11/04 07:56:51;;;;;;;6.33;2.00;;;;;;;;;;1731123;80;21065;-50
2022/11/04 07:59:17;;;;;;;3.80;1.35;;;;;;;;;;1730154;81;21039;-50
2022/11/04 08:01:43;;;;;;;4.08;1.40;;;;;;;;;;1731058;81;21102;-50
2022/11/04 08:04:10;;;;;;;2.08;1.30;;;;;;;;;;1730356;81;21100;-50
2022/11/04 08:06:36;;;;;;;2.47;1.80;;;;;;;;;;1738142;80;21933;-49
2022/11/04 08:09:03;;;;;;;6.05;2.37;;;;;;;;;;1723843;80;21026;-50
2022/11/04 08:11:29;;;;;;;3.22;2.17;;;;;;;;;;1730469;80;22175;-49
2022/11/04 08:13:56;;;;;;;5.53;1.72;;;;;;;;;;1726117;80;21073;-50
2022/11/04 08:16:24;;;;;;;2.65;1.98;;;;;;;;;;1730387;80;21080;-50
2022/11/04 08:19:00;;;;;;;2.42;1.65;;;;;;;;;;1734599;81;21800;-50
2022/11/04 08:21:19;;;;;;;3.55;1.90;;;;;;;;;;1724551;81;20997;-50
2022/11/04 08:23:47;;;;;;;3.47;1.65;;;;;;;;;;1727397;81;21083;-50
2022/11/04 08:26:17;;;;;;;3.37;2.05;;;;;;;;;;1731250;80;21085;-50
2022/11/04 08:28:43;;;;;;;2.47;1.70;;;;;;;;;;1730129;80;21460;-50
2022/11/04 08:31:14;;;;;;;6.00;1.65;;;;;;;;;;1723386;81;21792;-50
2022/11/04 08:33:42;;;;;;;3.75;1.50;;;;;;;;;;1729870;80;21092;-49
2022/11/04 08:36:15;;;;;;;3.75;1.90;;;;;;;;;;1725749;80;20975;-50
2022/11/04 08:38:41;;;;;;;4.85;2.17;;;;;;;;;;1730075;81;21826;-50
2022/11/04 08:41:07;;;;;;;3.08;2.35;;;;;;;;;;1731907;80;21057;-50
2022/11/04 08:43:34;;;;;;;5.25;2.40;;;;;;;;;;1731879;80;21794;-50
2022/11/04 08:46:00;;;;;;;4.78;2.30;;;;;;;;;;1729480;81;20993;-50
2022/11/04 08:48:27;;;;;;;3.17;1.75;;;;;;;;;;1728050;81;20951;-50
2022/11/04 08:50:54;;;;;;;2.85;1.60;;;;;;;;;;1731645;81;22331;-50
2022/11/04 08:53:21;;;;;;;5.22;1.40;;;;;;;;;;1727294;80;21016;-50
2022/11/04 08:55:47;;;;;;;2.00;1.80;;;;;;;;;;1732035;81;22385;-50
2022/11/04 08:58:14;;;;;;;3.25;2.37;;;;;;;;;;1728463;80;21033;-50
2022/11/04 09:00:40;;;;;;;2.62;2.42;;;;;;;;;;1722475;81;21542;-50
2022/11/04 09:03:07;;;;;;;5.97;3.65;;;;;;;;;;1729321;80;22350;-50
2022/11/04 09:05:35;;;;;;;3.42;3.08;;;;;;;;;;1729985;80;21158;-50
2022/11/04 09:08:03;;;;;;;6.22;2.98;;;;;;;;;;1734306;81;21856;-49
2022/11/04 09:10:30;;;;;;;3.17;2.27;;;;;;;;;;1731949;81;21033;-49
2022/11/04 09:12:56;;;;;;;3.87;1.85;;;;;;;;;;1728815;81;21042;-50
2022/11/04 09:15:22;;;;;;;2.65;1.10;;;;;;;;;;1729731;80;21501;-49
2022/11/04 09:17:48;;;;;;;2.00;1.60;;;;;;;;;;1728462;80;21082;-49
2022/11/04 09:20:16;;;;;;;2.42;1.22;;;;;;;;;;1727004;80;21541;-49
2022/11/04 09:22:44;;;;;;;3.85;1.22;;;;;;;;;;1726382;81;21030;-50
2022/11/04 09:25:10;;;;;;;3.95;2.08;;;;;;;;;;1728687;80;21404;-49
2022/11/04 09:27:36;;;;;;;4.33;2.42;;;;;;;;;;1731757;81;21089;-49
2022/11/04 09:30:03;;;;;;;5.35;1.90;;;;;;;;;;1731194;80;21426;-49
2022/11/04 09:32:30;;;;;;;4.20;2.72;;;;;;;;;;1731514;80;22086;-49
2022/11/04 09:34:56;;;;;;;2.85;1.92;;;;;;;;;;1729023;80;21049;-49
2022/11/04 09:37:23;;;;;;;3.30;1.75;;;;;;;;;;1734138;80;21102;-49
2022/11/04 09:39:49;;;;;;;5.35;1.42;;;;;;;;;;1738130;80;21101;-49
2022/11/04 09:42:25;;;;;;;1.90;1.62;;;;;;;;;;1732047;80;21092;-49
2022/11/04 09:45:10;;;;;;;1.52;1.25;;;;;;;;;;1736675;80;22313;-50
2022/11/04 09:47:37;;;;;;;1.60;1.15;;;;;;;;;;1732779;80;27453;-50
2022/11/04 09:50:06;;;;;;;1.87;1.50;;;;;;;;;;1736183;80;21098;-49
2022/11/04 09:52:39;;;;;;;2.50;1.30;;;;;;;;;;1736754;80;21058;-49
2022/11/04 09:55:14;;;;;;;3.00;1.37;;;;;;;;;;1742751;80;21109;-49
2022/11/04 09:57:41;;;;;;;2.50;1.82;;;;;;;;;;1734282;81;21973;-48
2022/11/04 10:00:12;;;;;;;4.53;2.15;;;;;;;;;;1734996;80;21573;-49
2022/11/04 10:02:48;;;;;;;3.95;2.30;;;;;;;;;;1735113;80;21177;-50
2022/11/04 10:05:18;;;;;;;4.20;3.80;;;;;;;;;;1736244;80;21187;-49
2022/11/04 10:08:19;;;;;;;4.47;4.08;;;;;;;;;;1735652;80;21069;-50
2022/11/04 10:11:05;;;;;;;4.53;2.37;;;;;;;;;;1697804;82;21918;-50
2022/11/04 10:13:43;;;;;;;5.08;2.50;;;;;;;;;;1702023;82;21069;-49
2022/11/04 10:16:32;;;;;;;2.05;1.25;;;;;;;;;;1736485;80;21410;-49
2022/11/04 10:19:02;;;;;;;3.52;1.98;;;;;;;;;;1738905;80;21206;-49
2022/11/04 10:21:38;;;;;;;2.75;1.90;;;;;;;;;;1730051;80;21159;-49
2022/11/04 10:24:13;;;;;;;5.25;2.45;;;;;;;;;;1736429;80;21824;-49
2022/11/04 10:26:56;;;;;;;4.95;3.47;;;;;;;;;;1733733;81;21534;-49
2022/11/04 10:29:27;;;;;;;2.75;2.55;;;;;;;;;;1730446;81;21073;-49
2022/11/04 10:31:54;;;;;;;4.28;1.80;;;;;;;;;;1737281;80;21092;-49
2022/11/04 10:34:26;;;;;;;3.27;2.98;;;;;;;;;;1726110;81;21072;-49
2022/11/04 10:36:53;;;;;;;3.62;3.05;;;;;;;;;;1734490;80;21819;-49
2022/11/04 10:39:26;;;;;;;5.15;2.37;;;;;;;;;;1733575;80;21037;-49
2022/11/04 10:41:52;;;;;;;4.85;3.42;;;;;;;;;;1737350;80;21076;-49
2022/11/04 10:44:24;;;;;;;3.30;2.20;;;;;;;;;;1738670;80;21752;-49
2022/11/04 10:47:00;;;;;;;4.65;2.40;;;;;;;;;;1738765;80;21235;-49
2022/11/04 10:49:46;;;;;;;3.10;2.10;;;;;;;;;;1746098;80;21786;-49
2022/11/04 10:52:13;;;;;;;2.92;2.17;;;;;;;;;;1734018;80;21391;-49
2022/11/04 10:54:42;;;;;;;3.10;1.92;;;;;;;;;;1734425;80;21084;-49
2022/11/04 10:59:17;;;;;;;4.03;1.80;;;;;;;;;;1793441;77;22611;-48
2022/11/04 11:01:49;;;;;;;6.80;2.50;;;;;;;;;;1741607;81;21542;-49
2022/11/04 11:04:26;;;;;;;1.98;1.50;;;;;;;;;;1765745;79;21802;-49
2022/11/04 11:06:54;;;;;;;3.02;2.65;;;;;;;;;;1740797;80;21250;-49
2022/11/04 11:09:28;;;;;;;4.37;2.62;;;;;;;;;;1742622;80;20985;-49
2022/11/04 11:12:13;;;;;;;3.37;2.10;;;;;;;;;;1756445;80;21007;-49
2022/11/04 11:14:41;;;;;;;4.97;2.58;;;;;;;;;;1768879;79;20975;-50
2022/11/04 11:17:19;;;;;;;6.00;2.45;;;;;;;;;;1739580;79;21783;-49
2022/11/04 11:19:59;;;;;;;4.35;2.33;;;;;;;;;;1770529;79;21463;-49
2022/11/04 11:22:41;;;;;;;3.25;1.90;;;;;;;;;;1770919;79;20990;-49
2022/11/04 11:25:25;;;;;;;4.53;1.82;;;;;;;;;;1769221;78;21606;-49
2022/11/04 11:27:54;;;;;;;2.33;1.70;;;;;;;;;;1766176;79;21555;-49
2022/11/04 11:30:24;;;;;;;5.40;2.20;;;;;;;;;;1730533;80;21801;-48
2022/11/04 11:32:54;;;;;;;3.90;2.00;;;;;;;;;;1766082;80;21366;-49
2022/11/04 11:35:22;;;;;;;3.10;1.75;;;;;;;;;;1766180;79;21061;-49
2022/11/04 11:37:48;;;;;;;1.90;1.80;;;;;;;;;;1772131;78;21201;-49
2022/11/04 11:40:28;;;;;;;4.97;2.62;;;;;;;;;;1726760;80;21069;-49
2022/11/04 11:42:54;;;;;;;2.60;2.05;;;;;;;;;;1756125;80;21798;-49
2022/11/04 11:45:22;;;;;;;2.00;1.87;;;;;;;;;;1756227;80;21038;-49
2022/11/04 11:47:53;;;;;;;5.92;2.40;;;;;;;;;;1754366;80;21110;-49
2022/11/04 11:50:33;;;;;;;2.47;2.00;;;;;;;;;;1754168;80;21058;-49
2022/11/04 11:53:24;;;;;;;2.87;1.87;;;;;;;;;;1732117;81;21100;-49
2022/11/04 11:55:53;;;;;;;2.08;1.52;;;;;;;;;;1745360;80;21846;-49
2022/11/04 11:58:26;;;;;;;2.25;1.92;;;;;;;;;;1727512;80;21363;-49
2022/11/04 12:00:58;;;;;;;2.65;1.62;;;;;;;;;;1723435;81;21049;-49
2022/11/04 12:03:34;;;;;;;2.50;1.57;;;;;;;;;;1736792;80;20974;-49
2022/11/04 12:06:20;;;;;;;3.22;2.17;;;;;;;;;;1727942;80;21622;-49
2022/11/04 12:09:06;;;;;;;4.67;1.62;;;;;;;;;;1721526;81;21810;-49
2022/11/04 12:12:31;;;;;;;3.53;1.90;;;;;;;;;;1792249;77;22622;-48
2022/11/04 12:15:18;;;;;;;2.17;1.62;;;;;;;;;;1772656;79;27218;-49
2022/11/04 12:18:07;;;;;;;2.50;1.60;;;;;;;;;;1772415;79;21034;-50
2022/11/04 12:20:49;;;;;;;2.62;1.65;;;;;;;;;;1767670;78;20990;-49
2022/11/04 12:23:22;;;;;;;3.52;1.60;;;;;;;;;;1774557;79;21069;-49
2022/11/04 12:26:15;;;;;;;2.75;1.27;;;;;;;;;;1778318;79;21433;-49
2022/11/04 12:28:58;;;;;;;2.12;1.32;;;;;;;;;;1773470;79;20971;-49
2022/11/04 12:31:42;;;;;;;2.33;1.47;;;;;;;;;;1765534;79;21751;-49
2022/11/04 12:34:33;;;;;;;1.82;1.52;;;;;;;;;;1770838;79;21050;-49
2022/11/04 12:37:11;;;;;;;3.72;1.55;;;;;;;;;;1735461;80;21488;-48
2022/11/04 12:39:43;;;;;;;7.53;1.85;;;;;;;;;;1764008;79;20973;-48
2022/11/04 12:42:19;;;;;;;3.05;1.57;;;;;;;;;;1775773;78;21134;-48
2022/11/04 12:45:11;;;;;;;2.12;1.00;;;;;;;;;;1770945;79;23239;-48
2022/11/04 12:47:42;;;;;;;2.25;1.10;;;;;;;;;;1771394;79;21053;-49
2022/11/04 12:50:29;;;;;;;4.33;1.98;;;;;;;;;;1772106;79;21087;-48
2022/11/04 12:53:14;;;;;;;4.60;2.00;;;;;;;;;;1764781;79;21141;-49
2022/11/04 12:55:45;;;;;;;4.45;1.90;;;;;;;;;;1756034;79;21068;-49
2022/11/04 12:58:44;;;;;;;5.55;1.90;;;;;;;;;;1757827;80;23730;-49
2022/11/04 13:01:18;;;;;;;4.65;1.60;;;;;;;;;;1762908;80;21041;-49
2022/11/04 13:04:05;;;;;;;2.05;1.40;;;;;;;;;;1763172;80;21020;-49
2022/11/04 13:06:45;;;;;;;4.05;1.35;;;;;;;;;;1749097;80;21668;-49
2022/11/04 13:09:17;;;;;;;1.65;1.55;;;;;;;;;;1758571;80;21076;-49
2022/11/04 13:11:57;;;;;;;1.77;1.20;;;;;;;;;;1733177;80;21383;-48
2022/11/04 13:14:28;;;;;;;6.87;1.27;;;;;;;;;;1735002;80;21531;-49
2022/11/04 13:16:59;;;;;;;2.12;1.17;;;;;;;;;;1735104;80;21088;-48
2022/11/04 13:19:46;;;;;;;3.92;1.57;;;;;;;;;;1736540;80;21085;-48
2022/11/04 13:22:22;;;;;;;2.95;1.07;;;;;;;;;;1739064;80;21053;-49
2022/11/04 13:24:52;;;;;;;4.00;1.10;;;;;;;;;;1736713;80;21867;-48
2022/11/04 13:27:22;;;;;;;1.50;1.12;;;;;;;;;;1714602;80;21029;-49
2022/11/04 13:29:50;;;;;;;3.72;1.95;;;;;;;;;;1739495;80;21291;-48
2022/11/04 13:32:24;;;;;;;5.15;2.05;;;;;;;;;;1741152;80;21087;-48
2022/11/04 13:35:03;;;;;;;3.40;2.12;;;;;;;;;;1745202;80;21033;-48
2022/11/04 13:37:38;;;;;;;2.60;1.60;;;;;;;;;;1740715;80;21924;-48
2022/11/04 13:40:08;;;;;;;2.27;1.50;;;;;;;;;;1736527;80;21493;-48
2022/11/04 13:45:55;;;;;;;1.40;1.10;;;;;;;;;;1739755;80;21034;-47
2022/11/04 13:48:25;;;;;;;5.15;1.50;;;;;;;;;;1737478;80;22190;-47
2022/11/04 13:51:06;;;;;;;4.15;1.47;;;;;;;;;;1737398;80;23701;-47
2022/11/04 13:53:55;;;;;;;2.17;0.98;;;;;;;;;;1735244;80;21073;-48
2022/11/04 13:56:40;;;;;;;3.45;1.00;;;;;;;;;;1735054;80;21606;-48
2022/11/04 13:59:22;;;;;;;3.80;1.05;;;;;;;;;;1737350;80;21511;-48
2022/11/04 14:01:51;;;;;;;2.22;1.00;;;;;;;;;;1734429;80;21047;-48
2022/11/04 14:04:29;;;;;;;2.12;0.90;;;;;;;;;;1716800;80;21948;-48
2022/11/04 14:07:02;;;;;;;2.00;1.40;;;;;;;;;;1735540;80;21020;-48
2022/11/04 14:09:32;;;;;;;3.65;1.45;;;;;;;;;;1739943;80;21025;-48
2022/11/04 14:12:20;;;;;;;3.40;1.80;;;;;;;;;;1732357;80;21048;-49
2022/11/04 14:14:52;;;;;;;3.25;1.77;;;;;;;;;;1733983;80;21050;-48
2022/11/04 14:17:37;;;;;;;2.17;1.50;;;;;;;;;;1737976;80;21890;-49
2022/11/04 14:20:21;;;;;;;;;;;;;;;;;;1746914;80;21444;-48
2022/11/04 14:23:01;;;;;;;2.67;1.00;;;;;;;;;;1746426;80;20277;-48
2022/11/04 14:25:30;;;;;;;1.62;0.80;;;;;;;;;;1745480;80;21041;-48
2022/11/04 14:31:35;;;;;;;2.73;1.27;;;;;;;;;;1777803;78;22621;-48
2022/11/04 14:34:01;;;;;;;2.52;1.70;;;;;;;;;;1749072;80;21515;-49
2022/11/04 14:36:39;;;;;;;5.67;1.87;;;;;;;;;;1749881;80;21842;-49
2022/11/04 14:39:11;;;;;;;3.20;1.22;;;;;;;;;;1742382;80;21045;-49
2022/11/04 14:41:49;;;;;;;2.20;1.02;;;;;;;;;;1751952;80;21045;-49
2022/11/04 14:44:20;;;;;;;2.98;1.02;;;;;;;;;;1720435;80;21747;-49
2022/11/04 14:46:48;;;;;;;4.03;1.20;;;;;;;;;;1738094;80;21115;-49
2022/11/04 14:49:37;;;;;;;1.50;1.10;;;;;;;;;;1744447;80;22355;-49
2022/11/04 14:52:05;;;;;;;2.98;1.45;;;;;;;;;;1742847;80;21449;-49
2022/11/04 14:54:33;;;;;;;4.72;1.47;;;;;;;;;;1743042;80;21078;-49
2022/11/04 14:57:08;;;;;;;2.15;1.30;;;;;;;;;;1740457;80;21127;-49
2022/11/04 14:59:35;;;;;;;2.45;1.32;;;;;;;;;;1694294;80;21195;-49
2022/11/04 15:02:02;;;;;;;2.00;1.80;;;;;;;;;;1727545;80;21815;-49
2022/11/04 15:04:31;;;;;;;3.33;1.60;;;;;;;;;;1732409;80;21520;-49
2022/11/04 15:07:00;;;;;;;1.98;1.55;;;;;;;;;;1732887;80;21144;-49
2022/11/04 15:09:33;;;;;;;6.22;1.80;;;;;;;;;;1737597;80;21090;-49
2022/11/04 15:14:59;;;;;;;1.57;0.98;;;;;;;;;;1734022;80;21824;-49
2022/11/04 15:17:31;;;;;;;2.15;1.22;;;;;;;;;;1737066;80;21559;-49
2022/11/04 15:19:59;;;;;;;1.82;1.05;;;;;;;;;;1739961;80;20981;-49
2022/11/04 15:22:26;;;;;;;4.60;1.20;;;;;;;;;;1727301;80;21128;-49
2022/11/04 15:24:52;;;;;;;3.25;1.22;;;;;;;;;;1737065;80;21685;-48
2022/11/04 15:27:23;;;;;;;1.95;1.10;;;;;;;;;;1725253;80;21929;-49
2022/11/04 15:29:59;;;;;;;1.77;1.30;;;;;;;;;;1721310;80;21030;-49
2022/11/04 15:32:28;;;;;;;3.12;1.52;;;;;;;;;;1726915;80;21038;-49
2022/11/04 15:34:55;;;;;;;3.67;1.77;;;;;;;;;;1707976;80;21336;-49
2022/11/04 15:37:24;;;;;;;4.03;3.17;;;;;;;;;;1696858;81;21105;-49
2022/11/04 15:39:52;;;;;;;7.05;2.85;;;;;;;;;;1700512;80;22542;-49
2022/11/04 15:45:28;;;;;;;3.20;1.75;;;;;;;;;;1727491;80;21061;-48
2022/11/04 15:48:21;;;;;;;4.83;1.40;;;;;;;;;;1698979;80;21041;-48
2022/11/04 15:50:54;;;;;;;8.95;1.52;;;;;;;;;;1690620;82;21559;-49
2022/11/04 15:53:20;;;;;;;6.35;1.80;;;;;;;;;;1723847;80;22025;-49
2022/11/04 15:55:46;;;;;;;2.62;1.10;;;;;;;;;;1724811;80;21034;-49